sensor_id;sensor_type;location;lat;lon;timestamp;P1;durP1;ratioP1;P2;durP2;ratioP2
67986;SDS011;54767;53.800;15.956;2022-12-18T00:01:22;26.30;;;11.10;;
67986;SDS011;54767;53.800;15.956;2022-12-18T00:03:49;31.90;;;11.50;;
67986;SDS011;54767;53.800;15.956;2022-12-18T00:06:18;29.30;;;12.40;;
67986;SDS011;54767;53.800;15.956;2022-12-18T00:08:46;25.70;;;11.60;;
67986;SDS011;54767;53.800;15.956;2022-12-18T00:11:14;31.00;;;12.30;;
67986;SDS011;54767;53.800;15.956;2022-12-18T00:13:43;28.60;;;12.00;;
67986;SDS011;54767;53.800;15.956;2022-12-18T00:16:12;30.10;;;11.10;;
67986;SDS011;54767;53.800;15.956;2022-12-18T00:18:41;27.70;;;11.70;;
67986;SDS011;54767;53.800;15.956;2022-12-18T00:21:09;34.20;;;12.20;;
67986;SDS011;54767;53.800;15.956;2022-12-18T00:23:38;32.40;;;12.40;;
67986;SDS011;54767;53.800;15.956;2022-12-18T00:26:10;29.90;;;12.70;;
67986;SDS011;54767;53.800;15.956;2022-12-18T00:28:38;34.00;;;13.70;;
67986;SDS011;54767;53.800;15.956;2022-12-18T00:31:06;36.70;;;12.20;;
67986;SDS011;54767;53.800;15.956;2022-12-18T00:33:37;30.30;;;12.20;;
67986;SDS011;54767;53.800;15.956;2022-12-18T00:36:06;28.70;;;11.80;;
67986;SDS011;54767;53.800;15.956;2022-12-18T00:38:36;31.60;;;11.90;;
67986;SDS011;54767;53.800;15.956;2022-12-18T00:41:04;36.90;;;14.90;;
67986;SDS011;54767;53.800;15.956;2022-12-18T00:43:35;32.30;;;12.40;;
67986;SDS011;54767;53.800;15.956;2022-12-18T00:46:03;31.90;;;12.00;;
67986;SDS011;54767;53.800;15.956;2022-12-18T00:48:31;30.40;;;11.70;;
67986;SDS011;54767;53.800;15.956;2022-12-18T00:50:58;31.20;;;12.70;;
67986;SDS011;54767;53.800;15.956;2022-12-18T00:53:25;30.30;;;12.00;;
67986;SDS011;54767;53.800;15.956;2022-12-18T00:55:52;30.20;;;11.40;;
67986;SDS011;54767;53.800;15.956;2022-12-18T00:58:18;32.60;;;12.80;;
67986;SDS011;54767;53.800;15.956;2022-12-18T01:00:45;33.50;;;13.30;;
67986;SDS011;54767;53.800;15.956;2022-12-18T01:03:12;30.50;;;12.40;;
67986;SDS011;54767;53.800;15.956;2022-12-18T01:05:41;37.50;;;13.60;;
67986;SDS011;54767;53.800;15.956;2022-12-18T01:08:08;37.50;;;13.60;;
67986;SDS011;54767;53.800;15.956;2022-12-18T01:10:35;37.00;;;13.50;;
67986;SDS011;54767;53.800;15.956;2022-12-18T01:13:02;39.50;;;13.90;;
67986;SDS011;54767;53.800;15.956;2022-12-18T01:15:29;41.20;;;15.20;;
67986;SDS011;54767;53.800;15.956;2022-12-18T01:17:56;42.00;;;14.60;;
67986;SDS011;54767;53.800;15.956;2022-12-18T01:20:23;32.30;;;13.30;;
67986;SDS011;54767;53.800;15.956;2022-12-18T01:22:49;34.80;;;11.20;;
67986;SDS011;54767;53.800;15.956;2022-12-18T01:25:16;37.30;;;14.00;;
67986;SDS011;54767;53.800;15.956;2022-12-18T01:27:43;32.90;;;12.60;;
67986;SDS011;54767;53.800;15.956;2022-12-18T01:30:10;32.00;;;11.90;;
67986;SDS011;54767;53.800;15.956;2022-12-18T01:32:37;32.30;;;12.00;;
67986;SDS011;54767;53.800;15.956;2022-12-18T01:35:04;32.50;;;12.30;;
67986;SDS011;54767;53.800;15.956;2022-12-18T01:37:32;35.30;;;12.80;;
67986;SDS011;54767;53.800;15.956;2022-12-18T01:39:59;32.80;;;11.70;;
67986;SDS011;54767;53.800;15.956;2022-12-18T01:42:25;35.50;;;13.60;;
67986;SDS011;54767;53.800;15.956;2022-12-18T01:49:53;35.60;;;12.50;;
67986;SDS011;54767;53.800;15.956;2022-12-18T01:52:21;36.10;;;12.90;;
67986;SDS011;54767;53.800;15.956;2022-12-18T01:54:51;34.10;;;13.00;;
67986;SDS011;54767;53.800;15.956;2022-12-18T01:57:20;32.40;;;12.20;;
67986;SDS011;54767;53.800;15.956;2022-12-18T01:59:49;29.90;;;10.90;;
67986;SDS011;54767;53.800;15.956;2022-12-18T02:02:19;29.70;;;11.80;;
67986;SDS011;54767;53.800;15.956;2022-12-18T02:04:47;31.30;;;11.60;;
67986;SDS011;54767;53.800;15.956;2022-12-18T02:10:17;31.40;;;11.40;;
67986;SDS011;54767;53.800;15.956;2022-12-18T02:13:01;35.60;;;12.60;;
67986;SDS011;54767;53.800;15.956;2022-12-18T02:18:08;31.50;;;10.90;;
67986;SDS011;54767;53.800;15.956;2022-12-18T02:20:43;32.20;;;12.00;;
67986;SDS011;54767;53.800;15.956;2022-12-18T02:23:24;30.30;;;12.20;;
67986;SDS011;54767;53.800;15.956;2022-12-18T02:28:56;28.40;;;11.80;;
67986;SDS011;54767;53.800;15.956;2022-12-18T02:31:30;35.40;;;12.30;;
67986;SDS011;54767;53.800;15.956;2022-12-18T02:34:03;32.20;;;11.20;;
67986;SDS011;54767;53.800;15.956;2022-12-18T02:36:33;31.90;;;11.60;;
67986;SDS011;54767;53.800;15.956;2022-12-18T02:39:02;28.70;;;11.50;;
67986;SDS011;54767;53.800;15.956;2022-12-18T02:41:33;32.90;;;11.40;;
67986;SDS011;54767;53.800;15.956;2022-12-18T02:44:06;28.60;;;10.40;;
67986;SDS011;54767;53.800;15.956;2022-12-18T02:46:36;32.40;;;12.50;;
67986;SDS011;54767;53.800;15.956;2022-12-18T03:00:23;17.20;;;7.70;;
67986;SDS011;54767;53.800;15.956;2022-12-18T03:05:41;28.00;;;10.40;;
67986;SDS011;54767;53.800;15.956;2022-12-18T03:08:23;27.30;;;10.30;;
67986;SDS011;54767;53.800;15.956;2022-12-18T03:13:35;28.40;;;11.10;;
67986;SDS011;54767;53.800;15.956;2022-12-18T03:16:06;29.20;;;11.10;;
67986;SDS011;54767;53.800;15.956;2022-12-18T03:18:39;30.90;;;11.80;;
67986;SDS011;54767;53.800;15.956;2022-12-18T03:21:14;32.90;;;11.70;;
67986;SDS011;54767;53.800;15.956;2022-12-18T03:23:54;27.40;;;10.60;;
67986;SDS011;54767;53.800;15.956;2022-12-18T03:26:24;30.00;;;10.50;;
67986;SDS011;54767;53.800;15.956;2022-12-18T03:29:01;24.00;;;10.60;;
67986;SDS011;54767;53.800;15.956;2022-12-18T03:31:31;28.70;;;10.90;;
67986;SDS011;54767;53.800;15.956;2022-12-18T03:33:59;27.50;;;10.10;;
67986;SDS011;54767;53.800;15.956;2022-12-18T03:36:30;28.80;;;9.80;;
67986;SDS011;54767;53.800;15.956;2022-12-18T03:38:58;26.70;;;10.30;;
67986;SDS011;54767;53.800;15.956;2022-12-18T03:41:32;27.50;;;10.50;;
67986;SDS011;54767;53.800;15.956;2022-12-18T03:44:13;29.50;;;10.40;;
67986;SDS011;54767;53.800;15.956;2022-12-18T03:49:23;23.60;;;9.80;;
67986;SDS011;54767;53.800;15.956;2022-12-18T03:52:01;28.50;;;10.00;;
67986;SDS011;54767;53.800;15.956;2022-12-18T03:54:31;30.40;;;11.10;;
67986;SDS011;54767;53.800;15.956;2022-12-18T03:57:19;30.60;;;10.80;;
67986;SDS011;54767;53.800;15.956;2022-12-18T03:59:49;32.50;;;10.70;;
67986;SDS011;54767;53.800;15.956;2022-12-18T04:02:20;27.40;;;9.80;;
67986;SDS011;54767;53.800;15.956;2022-12-18T04:04:51;26.70;;;9.40;;
67986;SDS011;54767;53.800;15.956;2022-12-18T04:07:20;23.80;;;9.00;;
67986;SDS011;54767;53.800;15.956;2022-12-18T04:09:48;23.30;;;8.60;;
67986;SDS011;54767;53.800;15.956;2022-12-18T04:12:16;21.20;;;8.70;;
67986;SDS011;54767;53.800;15.956;2022-12-18T04:14:43;22.20;;;9.20;;
67986;SDS011;54767;53.800;15.956;2022-12-18T04:17:11;29.40;;;9.60;;
67986;SDS011;54767;53.800;15.956;2022-12-18T04:19:39;25.90;;;9.60;;
67986;SDS011;54767;53.800;15.956;2022-12-18T04:22:08;26.90;;;10.10;;
67986;SDS011;54767;53.800;15.956;2022-12-18T04:24:36;29.40;;;10.60;;
67986;SDS011;54767;53.800;15.956;2022-12-18T04:27:04;28.00;;;9.20;;
67986;SDS011;54767;53.800;15.956;2022-12-18T04:29:32;27.40;;;10.30;;
67986;SDS011;54767;53.800;15.956;2022-12-18T04:31:59;30.80;;;11.00;;
67986;SDS011;54767;53.800;15.956;2022-12-18T04:34:26;23.30;;;9.10;;
67986;SDS011;54767;53.800;15.956;2022-12-18T04:36:52;21.80;;;9.30;;
67986;SDS011;54767;53.800;15.956;2022-12-18T04:39:19;31.60;;;11.80;;
67986;SDS011;54767;53.800;15.956;2022-12-18T04:41:46;31.20;;;10.50;;
67986;SDS011;54767;53.800;15.956;2022-12-18T04:44:13;31.60;;;10.70;;
67986;SDS011;54767;53.800;15.956;2022-12-18T04:46:40;28.80;;;10.80;;
67986;SDS011;54767;53.800;15.956;2022-12-18T04:49:07;28.90;;;11.20;;
67986;SDS011;54767;53.800;15.956;2022-12-18T04:51:34;32.00;;;11.90;;
67986;SDS011;54767;53.800;15.956;2022-12-18T04:54:00;30.60;;;11.00;;
67986;SDS011;54767;53.800;15.956;2022-12-18T04:56:27;30.90;;;11.60;;
67986;SDS011;54767;53.800;15.956;2022-12-18T04:58:54;30.40;;;11.90;;
67986;SDS011;54767;53.800;15.956;2022-12-18T05:01:21;32.40;;;11.20;;
67986;SDS011;54767;53.800;15.956;2022-12-18T05:03:48;31.30;;;11.60;;
67986;SDS011;54767;53.800;15.956;2022-12-18T05:06:14;29.10;;;10.10;;
67986;SDS011;54767;53.800;15.956;2022-12-18T05:08:41;27.70;;;10.30;;
67986;SDS011;54767;53.800;15.956;2022-12-18T05:11:09;30.30;;;10.30;;
67986;SDS011;54767;53.800;15.956;2022-12-18T05:16:06;33.30;;;10.80;;
67986;SDS011;54767;53.800;15.956;2022-12-18T05:18:35;28.10;;;10.50;;
67986;SDS011;54767;53.800;15.956;2022-12-18T05:21:02;30.90;;;10.70;;
67986;SDS011;54767;53.800;15.956;2022-12-18T05:23:29;28.30;;;10.80;;
67986;SDS011;54767;53.800;15.956;2022-12-18T05:25:57;33.20;;;12.10;;
67986;SDS011;54767;53.800;15.956;2022-12-18T05:28:27;31.40;;;10.40;;
67986;SDS011;54767;53.800;15.956;2022-12-18T05:30:56;26.40;;;10.10;;
67986;SDS011;54767;53.800;15.956;2022-12-18T05:35:57;25.00;;;9.40;;
67986;SDS011;54767;53.800;15.956;2022-12-18T05:38:25;29.90;;;10.90;;
67986;SDS011;54767;53.800;15.956;2022-12-18T05:40:53;30.10;;;11.90;;
67986;SDS011;54767;53.800;15.956;2022-12-18T05:43:21;32.00;;;11.90;;
67986;SDS011;54767;53.800;15.956;2022-12-18T05:45:48;25.90;;;11.40;;
67986;SDS011;54767;53.800;15.956;2022-12-18T05:48:16;31.00;;;11.30;;
67986;SDS011;54767;53.800;15.956;2022-12-18T05:50:44;28.70;;;11.50;;
67986;SDS011;54767;53.800;15.956;2022-12-18T05:53:13;25.00;;;10.30;;
67986;SDS011;54767;53.800;15.956;2022-12-18T05:55:41;35.30;;;12.00;;
67986;SDS011;54767;53.800;15.956;2022-12-18T05:58:10;35.80;;;11.50;;
67986;SDS011;54767;53.800;15.956;2022-12-18T06:00:39;31.70;;;12.10;;
67986;SDS011;54767;53.800;15.956;2022-12-18T06:03:08;35.90;;;12.90;;
67986;SDS011;54767;53.800;15.956;2022-12-18T06:05:38;41.60;;;14.50;;
67986;SDS011;54767;53.800;15.956;2022-12-18T06:08:06;38.80;;;14.00;;
67986;SDS011;54767;53.800;15.956;2022-12-18T06:10:33;43.00;;;14.60;;
67986;SDS011;54767;53.800;15.956;2022-12-18T06:13:00;45.40;;;13.90;;
67986;SDS011;54767;53.800;15.956;2022-12-18T06:15:27;43.30;;;14.70;;
67986;SDS011;54767;53.800;15.956;2022-12-18T06:17:54;37.80;;;13.20;;
67986;SDS011;54767;53.800;15.956;2022-12-18T06:20:21;40.30;;;13.80;;
67986;SDS011;54767;53.800;15.956;2022-12-18T06:22:48;34.10;;;11.90;;
67986;SDS011;54767;53.800;15.956;2022-12-18T06:25:15;38.00;;;13.10;;
67986;SDS011;54767;53.800;15.956;2022-12-18T06:27:42;40.00;;;13.70;;
67986;SDS011;54767;53.800;15.956;2022-12-18T06:30:10;37.00;;;12.40;;
67986;SDS011;54767;53.800;15.956;2022-12-18T06:32:38;39.70;;;13.80;;
67986;SDS011;54767;53.800;15.956;2022-12-18T06:35:05;34.30;;;12.30;;
67986;SDS011;54767;53.800;15.956;2022-12-18T06:37:32;37.60;;;13.60;;
67986;SDS011;54767;53.800;15.956;2022-12-18T06:39:59;35.80;;;11.90;;
67986;SDS011;54767;53.800;15.956;2022-12-18T06:42:28;33.30;;;12.20;;
67986;SDS011;54767;53.800;15.956;2022-12-18T06:44:55;41.20;;;13.90;;
67986;SDS011;54767;53.800;15.956;2022-12-18T06:47:21;42.20;;;14.70;;
67986;SDS011;54767;53.800;15.956;2022-12-18T06:49:48;34.60;;;13.00;;
67986;SDS011;54767;53.800;15.956;2022-12-18T06:52:15;34.30;;;13.80;;
67986;SDS011;54767;53.800;15.956;2022-12-18T06:54:43;37.50;;;14.60;;
67986;SDS011;54767;53.800;15.956;2022-12-18T06:57:09;40.60;;;16.00;;
67986;SDS011;54767;53.800;15.956;2022-12-18T06:59:36;44.20;;;14.20;;
67986;SDS011;54767;53.800;15.956;2022-12-18T07:02:03;37.90;;;14.30;;
67986;SDS011;54767;53.800;15.956;2022-12-18T07:04:31;39.60;;;14.40;;
67986;SDS011;54767;53.800;15.956;2022-12-18T07:06:58;40.90;;;13.30;;
67986;SDS011;54767;53.800;15.956;2022-12-18T07:09:25;33.60;;;13.50;;
67986;SDS011;54767;53.800;15.956;2022-12-18T07:11:52;40.20;;;13.80;;
67986;SDS011;54767;53.800;15.956;2022-12-18T07:14:19;41.60;;;13.90;;
67986;SDS011;54767;53.800;15.956;2022-12-18T07:16:47;39.30;;;13.50;;
67986;SDS011;54767;53.800;15.956;2022-12-18T07:19:14;46.90;;;15.00;;
67986;SDS011;54767;53.800;15.956;2022-12-18T07:21:41;36.00;;;13.00;;
67986;SDS011;54767;53.800;15.956;2022-12-18T07:24:08;42.40;;;14.30;;
67986;SDS011;54767;53.800;15.956;2022-12-18T07:26:35;35.60;;;13.10;;
67986;SDS011;54767;53.800;15.956;2022-12-18T07:29:01;38.80;;;12.90;;
67986;SDS011;54767;53.800;15.956;2022-12-18T07:31:28;39.70;;;13.30;;
67986;SDS011;54767;53.800;15.956;2022-12-18T07:33:55;33.80;;;12.30;;
67986;SDS011;54767;53.800;15.956;2022-12-18T07:36:22;31.60;;;11.00;;
67986;SDS011;54767;53.800;15.956;2022-12-18T07:38:49;32.90;;;13.00;;
67986;SDS011;54767;53.800;15.956;2022-12-18T07:41:18;41.40;;;14.30;;
67986;SDS011;54767;53.800;15.956;2022-12-18T07:43:45;36.30;;;12.80;;
67986;SDS011;54767;53.800;15.956;2022-12-18T07:46:13;34.40;;;12.60;;
67986;SDS011;54767;53.800;15.956;2022-12-18T07:48:41;38.80;;;14.20;;
67986;SDS011;54767;53.800;15.956;2022-12-18T07:51:12;36.30;;;13.70;;
67986;SDS011;54767;53.800;15.956;2022-12-18T07:53:40;28.30;;;13.10;;
67986;SDS011;54767;53.800;15.956;2022-12-18T07:56:09;48.60;;;13.70;;
67986;SDS011;54767;53.800;15.956;2022-12-18T07:58:54;37.90;;;14.30;;
67986;SDS011;54767;53.800;15.956;2022-12-18T08:01:23;35.50;;;12.70;;
67986;SDS011;54767;53.800;15.956;2022-12-18T08:03:50;32.30;;;11.70;;
67986;SDS011;54767;53.800;15.956;2022-12-18T08:06:18;36.80;;;11.80;;
67986;SDS011;54767;53.800;15.956;2022-12-18T08:08:48;33.00;;;11.30;;
67986;SDS011;54767;53.800;15.956;2022-12-18T08:11:16;31.60;;;11.60;;
67986;SDS011;54767;53.800;15.956;2022-12-18T08:13:43;34.80;;;12.10;;
67986;SDS011;54767;53.800;15.956;2022-12-18T08:16:10;35.10;;;11.80;;
67986;SDS011;54767;53.800;15.956;2022-12-18T08:18:37;32.90;;;12.00;;
67986;SDS011;54767;53.800;15.956;2022-12-18T08:21:08;31.50;;;10.40;;
67986;SDS011;54767;53.800;15.956;2022-12-18T08:23:39;36.40;;;12.60;;
67986;SDS011;54767;53.800;15.956;2022-12-18T08:26:10;38.40;;;14.40;;
67986;SDS011;54767;53.800;15.956;2022-12-18T08:28:38;42.70;;;16.20;;
67986;SDS011;54767;53.800;15.956;2022-12-18T08:31:06;39.00;;;13.50;;
67986;SDS011;54767;53.800;15.956;2022-12-18T08:33:34;35.00;;;13.80;;
67986;SDS011;54767;53.800;15.956;2022-12-18T08:36:03;32.70;;;12.00;;
67986;SDS011;54767;53.800;15.956;2022-12-18T08:38:31;30.20;;;10.40;;
67986;SDS011;54767;53.800;15.956;2022-12-18T08:41:03;35.80;;;12.60;;
67986;SDS011;54767;53.800;15.956;2022-12-18T08:43:31;33.50;;;11.70;;
67986;SDS011;54767;53.800;15.956;2022-12-18T08:48:44;37.90;;;12.80;;
67986;SDS011;54767;53.800;15.956;2022-12-18T08:51:11;36.80;;;12.40;;
67986;SDS011;54767;53.800;15.956;2022-12-18T08:53:39;35.60;;;12.60;;
67986;SDS011;54767;53.800;15.956;2022-12-18T08:56:07;35.50;;;13.10;;
67986;SDS011;54767;53.800;15.956;2022-12-18T08:58:34;31.60;;;12.10;;
67986;SDS011;54767;53.800;15.956;2022-12-18T09:01:01;31.40;;;11.30;;
67986;SDS011;54767;53.800;15.956;2022-12-18T09:03:32;31.00;;;11.50;;
67986;SDS011;54767;53.800;15.956;2022-12-18T09:06:01;41.60;;;13.50;;
67986;SDS011;54767;53.800;15.956;2022-12-18T09:08:28;40.30;;;14.60;;
67986;SDS011;54767;53.800;15.956;2022-12-18T09:10:55;42.70;;;16.30;;
67986;SDS011;54767;53.800;15.956;2022-12-18T09:13:22;36.10;;;14.40;;
67986;SDS011;54767;53.800;15.956;2022-12-18T09:15:52;40.20;;;16.20;;
67986;SDS011;54767;53.800;15.956;2022-12-18T09:18:21;35.10;;;16.80;;
67986;SDS011;54767;53.800;15.956;2022-12-18T09:20:49;36.90;;;15.10;;
67986;SDS011;54767;53.800;15.956;2022-12-18T09:23:18;40.30;;;14.40;;
67986;SDS011;54767;53.800;15.956;2022-12-18T09:25:46;34.60;;;13.80;;
67986;SDS011;54767;53.800;15.956;2022-12-18T09:28:13;35.40;;;12.60;;
67986;SDS011;54767;53.800;15.956;2022-12-18T09:30:43;40.70;;;13.10;;
67986;SDS011;54767;53.800;15.956;2022-12-18T09:33:14;39.30;;;13.80;;
67986;SDS011;54767;53.800;15.956;2022-12-18T09:35:43;40.70;;;14.30;;
67986;SDS011;54767;53.800;15.956;2022-12-18T09:38:17;36.70;;;13.60;;
67986;SDS011;54767;53.800;15.956;2022-12-18T09:40:49;35.00;;;12.50;;
67986;SDS011;54767;53.800;15.956;2022-12-18T09:43:45;35.00;;;11.90;;
67986;SDS011;54767;53.800;15.956;2022-12-18T09:46:36;39.20;;;13.30;;
67986;SDS011;54767;53.800;15.956;2022-12-18T09:49:09;31.90;;;13.10;;
67986;SDS011;54767;53.800;15.956;2022-12-18T09:51:45;36.90;;;13.20;;
67986;SDS011;54767;53.800;15.956;2022-12-18T09:54:37;39.40;;;14.00;;
67986;SDS011;54767;53.800;15.956;2022-12-18T09:57:06;81.90;;;18.90;;
67986;SDS011;54767;53.800;15.956;2022-12-18T09:59:37;48.20;;;13.50;;
67986;SDS011;54767;53.800;15.956;2022-12-18T10:02:21;49.90;;;15.60;;
67986;SDS011;54767;53.800;15.956;2022-12-18T10:05:11;37.30;;;13.50;;
67986;SDS011;54767;53.800;15.956;2022-12-18T10:13:30;43.70;;;14.10;;
67986;SDS011;54767;53.800;15.956;2022-12-18T10:27:15;32.80;;;14.10;;
67986;SDS011;54767;53.800;15.956;2022-12-18T10:29:44;30.90;;;12.50;;
67986;SDS011;54767;53.800;15.956;2022-12-18T10:32:16;31.90;;;12.40;;
67986;SDS011;54767;53.800;15.956;2022-12-18T10:34:49;31.70;;;12.00;;
67986;SDS011;54767;53.800;15.956;2022-12-18T10:37:26;37.90;;;14.00;;
67986;SDS011;54767;53.800;15.956;2022-12-18T10:45:38;32.60;;;12.20;;
67986;SDS011;54767;53.800;15.956;2022-12-18T10:48:21;34.00;;;13.40;;
67986;SDS011;54767;53.800;15.956;2022-12-18T10:50:49;30.90;;;12.50;;
67986;SDS011;54767;53.800;15.956;2022-12-18T10:53:38;35.40;;;13.30;;
67986;SDS011;54767;53.800;15.956;2022-12-18T10:56:08;35.10;;;12.50;;
67986;SDS011;54767;53.800;15.956;2022-12-18T10:58:38;39.70;;;14.20;;
67986;SDS011;54767;53.800;15.956;2022-12-18T11:01:08;41.20;;;14.50;;
67986;SDS011;54767;53.800;15.956;2022-12-18T11:03:42;34.90;;;13.20;;
67986;SDS011;54767;53.800;15.956;2022-12-18T11:06:15;31.40;;;11.30;;
67986;SDS011;54767;53.800;15.956;2022-12-18T11:08:57;34.20;;;13.30;;
67986;SDS011;54767;53.800;15.956;2022-12-18T11:11:27;36.00;;;12.40;;
67986;SDS011;54767;53.800;15.956;2022-12-18T11:16:29;33.70;;;12.30;;
67986;SDS011;54767;53.800;15.956;2022-12-18T11:19:12;33.00;;;12.90;;
67986;SDS011;54767;53.800;15.956;2022-12-18T11:21:48;28.80;;;12.60;;
67986;SDS011;54767;53.800;15.956;2022-12-18T11:24:38;28.80;;;11.90;;
67986;SDS011;54767;53.800;15.956;2022-12-18T11:27:05;33.80;;;12.10;;
67986;SDS011;54767;53.800;15.956;2022-12-18T11:29:42;32.00;;;11.60;;
67986;SDS011;54767;53.800;15.956;2022-12-18T11:32:35;29.90;;;11.50;;
67986;SDS011;54767;53.800;15.956;2022-12-18T11:37:48;29.50;;;11.00;;
67986;SDS011;54767;53.800;15.956;2022-12-18T11:40:30;32.20;;;11.40;;
67986;SDS011;54767;53.800;15.956;2022-12-18T11:43:18;28.90;;;11.10;;
67986;SDS011;54767;53.800;15.956;2022-12-18T11:49:39;29.30;;;10.30;;
67986;SDS011;54767;53.800;15.956;2022-12-18T11:54:50;24.20;;;10.60;;
67986;SDS011;54767;53.800;15.956;2022-12-18T11:57:28;24.50;;;10.10;;
67986;SDS011;54767;53.800;15.956;2022-12-18T12:03:27;25.00;;;10.00;;
67986;SDS011;54767;53.800;15.956;2022-12-18T12:17:04;22.20;;;9.40;;
67986;SDS011;54767;53.800;15.956;2022-12-18T12:22:48;19.90;;;8.50;;
67986;SDS011;54767;53.800;15.956;2022-12-18T12:28:24;22.40;;;9.00;;
67986;SDS011;54767;53.800;15.956;2022-12-18T12:34:01;21.40;;;8.50;;
67986;SDS011;54767;53.800;15.956;2022-12-18T12:39:16;24.50;;;9.00;;
67986;SDS011;54767;53.800;15.956;2022-12-18T12:41:50;27.40;;;10.30;;
67986;SDS011;54767;53.800;15.956;2022-12-18T12:44:43;24.00;;;9.60;;
67986;SDS011;54767;53.800;15.956;2022-12-18T12:47:33;23.30;;;8.10;;
67986;SDS011;54767;53.800;15.956;2022-12-18T12:50:15;26.50;;;10.00;;
67986;SDS011;54767;53.800;15.956;2022-12-18T12:52:46;31.10;;;11.50;;
67986;SDS011;54767;53.800;15.956;2022-12-18T12:55:23;32.40;;;12.80;;
67986;SDS011;54767;53.800;15.956;2022-12-18T12:58:38;31.00;;;14.10;;
67986;SDS011;54767;53.800;15.956;2022-12-18T13:06:43;30.70;;;12.40;;
67986;SDS011;54767;53.800;15.956;2022-12-18T13:09:17;29.50;;;11.90;;
67986;SDS011;54767;53.800;15.956;2022-12-18T13:11:45;26.90;;;11.40;;
67986;SDS011;54767;53.800;15.956;2022-12-18T13:17:20;25.50;;;9.70;;
67986;SDS011;54767;53.800;15.956;2022-12-18T13:22:36;26.40;;;9.90;;
67986;SDS011;54767;53.800;15.956;2022-12-18T13:28:13;21.80;;;8.70;;
67986;SDS011;54767;53.800;15.956;2022-12-18T13:30:43;20.40;;;8.50;;
67986;SDS011;54767;53.800;15.956;2022-12-18T13:38:24;29.90;;;10.70;;
67986;SDS011;54767;53.800;15.956;2022-12-18T13:43:50;33.70;;;15.70;;
67986;SDS011;54767;53.800;15.956;2022-12-18T13:51:29;36.90;;;15.10;;
67986;SDS011;54767;53.800;15.956;2022-12-18T13:56:43;31.10;;;12.30;;
67986;SDS011;54767;53.800;15.956;2022-12-18T14:01:56;32.60;;;11.10;;
67986;SDS011;54767;53.800;15.956;2022-12-18T14:04:32;29.50;;;14.40;;
67986;SDS011;54767;53.800;15.956;2022-12-18T14:07:03;39.80;;;16.70;;
67986;SDS011;54767;53.800;15.956;2022-12-18T14:09:31;36.20;;;14.20;;
67986;SDS011;54767;53.800;15.956;2022-12-18T14:12:03;34.80;;;11.50;;
67986;SDS011;54767;53.800;15.956;2022-12-18T14:14:50;30.00;;;11.40;;
67986;SDS011;54767;53.800;15.956;2022-12-18T14:17:21;32.40;;;14.50;;
67986;SDS011;54767;53.800;15.956;2022-12-18T14:19:50;33.80;;;13.60;;
67986;SDS011;54767;53.800;15.956;2022-12-18T14:22:19;34.10;;;13.30;;
67986;SDS011;54767;53.800;15.956;2022-12-18T14:24:58;33.50;;;12.10;;
67986;SDS011;54767;53.800;15.956;2022-12-18T14:33:18;40.30;;;20.00;;
67986;SDS011;54767;53.800;15.956;2022-12-18T14:36:01;33.90;;;15.50;;
67986;SDS011;54767;53.800;15.956;2022-12-18T14:38:38;31.30;;;14.10;;
67986;SDS011;54767;53.800;15.956;2022-12-18T14:41:10;32.00;;;11.30;;
67986;SDS011;54767;53.800;15.956;2022-12-18T14:43:43;32.50;;;12.10;;
67986;SDS011;54767;53.800;15.956;2022-12-18T14:52:03;25.60;;;9.60;;
67986;SDS011;54767;53.800;15.956;2022-12-18T14:54:34;30.20;;;10.70;;
67986;SDS011;54767;53.800;15.956;2022-12-18T14:57:23;33.10;;;11.30;;
67986;SDS011;54767;53.800;15.956;2022-12-18T14:59:53;24.80;;;10.30;;
67986;SDS011;54767;53.800;15.956;2022-12-18T15:02:23;32.10;;;10.90;;
67986;SDS011;54767;53.800;15.956;2022-12-18T15:07:40;24.20;;;8.60;;
67986;SDS011;54767;53.800;15.956;2022-12-18T15:10:18;26.50;;;9.70;;
67986;SDS011;54767;53.800;15.956;2022-12-18T15:25:59;25.80;;;9.40;;
67986;SDS011;54767;53.800;15.956;2022-12-18T15:33:39;19.90;;;8.80;;
67986;SDS011;54767;53.800;15.956;2022-12-18T15:36:15;34.20;;;14.00;;
67986;SDS011;54767;53.800;15.956;2022-12-18T15:38:53;28.70;;;12.40;;
67986;SDS011;54767;53.800;15.956;2022-12-18T15:41:28;26.60;;;11.70;;
67986;SDS011;54767;53.800;15.956;2022-12-18T15:44:36;25.60;;;11.40;;
67986;SDS011;54767;53.800;15.956;2022-12-18T15:47:07;22.10;;;9.80;;
67986;SDS011;54767;53.800;15.956;2022-12-18T15:49:37;29.80;;;12.60;;
67986;SDS011;54767;53.800;15.956;2022-12-18T15:52:04;30.60;;;12.30;;
67986;SDS011;54767;53.800;15.956;2022-12-18T15:54:32;26.70;;;10.80;;
67986;SDS011;54767;53.800;15.956;2022-12-18T15:57:19;27.20;;;11.70;;
67986;SDS011;54767;53.800;15.956;2022-12-18T15:59:49;34.40;;;12.10;;
67986;SDS011;54767;53.800;15.956;2022-12-18T16:02:19;29.20;;;12.30;;
67986;SDS011;54767;53.800;15.956;2022-12-18T16:07:17;29.10;;;11.40;;
67986;SDS011;54767;53.800;15.956;2022-12-18T16:09:51;31.00;;;12.80;;
67986;SDS011;54767;53.800;15.956;2022-12-18T16:12:19;34.50;;;13.50;;
67986;SDS011;54767;53.800;15.956;2022-12-18T16:14:51;35.70;;;14.20;;
67986;SDS011;54767;53.800;15.956;2022-12-18T16:17:19;31.30;;;13.00;;
67986;SDS011;54767;53.800;15.956;2022-12-18T16:19:46;31.10;;;12.30;;
67986;SDS011;54767;53.800;15.956;2022-12-18T16:22:20;29.40;;;11.60;;
67986;SDS011;54767;53.800;15.956;2022-12-18T16:24:52;37.30;;;14.60;;
67986;SDS011;54767;53.800;15.956;2022-12-18T16:27:21;37.70;;;15.30;;
67986;SDS011;54767;53.800;15.956;2022-12-18T16:29:49;38.50;;;14.20;;
67986;SDS011;54767;53.800;15.956;2022-12-18T16:32:18;45.00;;;17.60;;
67986;SDS011;54767;53.800;15.956;2022-12-18T16:34:46;32.90;;;12.70;;
67986;SDS011;54767;53.800;15.956;2022-12-18T16:37:14;42.30;;;16.30;;
67986;SDS011;54767;53.800;15.956;2022-12-18T16:39:42;37.30;;;14.70;;
67986;SDS011;54767;53.800;15.956;2022-12-18T16:42:13;32.20;;;13.00;;
67986;SDS011;54767;53.800;15.956;2022-12-18T16:44:43;44.90;;;17.20;;
67986;SDS011;54767;53.800;15.956;2022-12-18T16:47:12;41.50;;;16.00;;
67986;SDS011;54767;53.800;15.956;2022-12-18T16:49:41;31.50;;;13.60;;
67986;SDS011;54767;53.800;15.956;2022-12-18T16:52:11;30.20;;;12.90;;
67986;SDS011;54767;53.800;15.956;2022-12-18T16:54:39;28.30;;;12.50;;
67986;SDS011;54767;53.800;15.956;2022-12-18T16:57:06;24.30;;;10.80;;
67986;SDS011;54767;53.800;15.956;2022-12-18T16:59:34;32.00;;;12.60;;
67986;SDS011;54767;53.800;15.956;2022-12-18T17:02:04;28.50;;;12.10;;
67986;SDS011;54767;53.800;15.956;2022-12-18T17:04:32;30.60;;;13.90;;
67986;SDS011;54767;53.800;15.956;2022-12-18T17:07:00;33.50;;;13.80;;
67986;SDS011;54767;53.800;15.956;2022-12-18T17:09:26;32.20;;;12.90;;
67986;SDS011;54767;53.800;15.956;2022-12-18T17:11:54;29.60;;;12.90;;
67986;SDS011;54767;53.800;15.956;2022-12-18T17:14:22;29.00;;;12.60;;
67986;SDS011;54767;53.800;15.956;2022-12-18T17:16:53;30.00;;;12.20;;
67986;SDS011;54767;53.800;15.956;2022-12-18T17:19:42;34.50;;;15.00;;
67986;SDS011;54767;53.800;15.956;2022-12-18T17:22:09;33.20;;;16.90;;